sensor_id;sensor_type;location;lat;lon;timestamp;pressure;altitude;pressure_sealevel;temperature;humidity
19114;BME280;9689;51.052;13.772;2023-05-24T00:00:13;100626.19;;;11.12;72.52
19114;BME280;9689;51.052;13.772;2023-05-24T00:05:14;100630.59;;;11.08;72.12
19114;BME280;9689;51.052;13.772;2023-05-24T00:10:17;100637.66;;;11.01;72.62
19114;BME280;9689;51.052;13.772;2023-05-24T00:15:19;100649.09;;;10.93;72.05
19114;BME280;9689;51.052;13.772;2023-05-24T00:20:20;100644.06;;;10.82;71.13
19114;BME280;9689;51.052;13.772;2023-05-24T00:25:20;100638.00;;;10.80;71.81
19114;BME280;9689;51.052;13.772;2023-05-24T00:30:22;100641.59;;;10.73;72.55
19114;BME280;9689;51.052;13.772;2023-05-24T00:35:23;100636.44;;;10.70;70.95
19114;BME280;9689;51.052;13.772;2023-05-24T00:40:25;100645.09;;;10.72;70.94
19114;BME280;9689;51.052;13.772;2023-05-24T00:45:27;100646.88;;;10.67;70.93
19114;BME280;9689;51.052;13.772;2023-05-24T00:50:30;100654.81;;;10.59;70.03
19114;BME280;9689;51.052;13.772;2023-05-24T01:02:29;100669.78;;;10.46;69.37
19114;BME280;9689;51.052;13.772;2023-05-24T01:07:36;100671.47;;;10.49;68.48
19114;BME280;9689;51.052;13.772;2023-05-24T01:13:58;100669.81;;;10.43;69.46
19114;BME280;9689;51.052;13.772;2023-05-24T01:20:18;100673.38;;;10.36;69.94
19114;BME280;9689;51.052;13.772;2023-05-24T01:25:28;100675.84;;;10.47;70.06
19114;BME280;9689;51.052;13.772;2023-05-24T02:10:56;100689.34;;;10.06;66.97
19114;BME280;9689;51.052;13.772;2023-05-24T02:15:57;100705.06;;;9.98;66.28
19114;BME280;9689;51.052;13.772;2023-05-24T02:20:59;100684.41;;;9.81;65.83
19114;BME280;9689;51.052;13.772;2023-05-24T02:26:01;100686.25;;;9.73;65.83
19114;BME280;9689;51.052;13.772;2023-05-24T02:31:03;100681.13;;;9.67;66.23
19114;BME280;9689;51.052;13.772;2023-05-24T02:36:05;100675.88;;;9.70;66.17
19114;BME280;9689;51.052;13.772;2023-05-24T02:41:07;100678.63;;;9.55;66.06
19114;BME280;9689;51.052;13.772;2023-05-24T02:46:10;100672.56;;;9.54;65.45
19114;BME280;9689;51.052;13.772;2023-05-24T02:51:11;100673.53;;;9.44;66.51
19114;BME280;9689;51.052;13.772;2023-05-24T03:03:04;100670.84;;;9.53;66.41
19114;BME280;9689;51.052;13.772;2023-05-24T03:08:05;100681.22;;;9.55;67.04
19114;BME280;9689;51.052;13.772;2023-05-24T03:13:07;100671.63;;;9.61;66.74
19114;BME280;9689;51.052;13.772;2023-05-24T03:18:11;100672.44;;;9.67;66.61
19114;BME280;9689;51.052;13.772;2023-05-24T03:23:12;100679.44;;;9.60;66.84
19114;BME280;9689;51.052;13.772;2023-05-24T03:28:15;100689.88;;;9.55;67.63
19114;BME280;9689;51.052;13.772;2023-05-24T03:33:17;100680.44;;;9.47;68.55
19114;BME280;9689;51.052;13.772;2023-05-24T03:38:18;100683.03;;;9.47;68.10
19114;BME280;9689;51.052;13.772;2023-05-24T03:43:19;100691.75;;;9.43;68.08
19114;BME280;9689;51.052;13.772;2023-05-24T03:48:40;100692.66;;;9.37;67.89
19114;BME280;9689;51.052;13.772;2023-05-24T03:53:41;100685.72;;;9.38;68.18
19114;BME280;9689;51.052;13.772;2023-05-24T04:05:40;100706.50;;;9.41;67.75
19114;BME280;9689;51.052;13.772;2023-05-24T04:10:42;100716.16;;;9.26;67.99
19114;BME280;9689;51.052;13.772;2023-05-24T04:15:44;100722.19;;;9.31;67.35
19114;BME280;9689;51.052;13.772;2023-05-24T04:20:46;100730.72;;;9.49;68.95
19114;BME280;9689;51.052;13.772;2023-05-24T04:25:46;100739.19;;;9.71;67.43
19114;BME280;9689;51.052;13.772;2023-05-24T04:30:47;100735.00;;;9.54;67.17
19114;BME280;9689;51.052;13.772;2023-05-24T04:35:51;100734.06;;;9.61;66.65
19114;BME280;9689;51.052;13.772;2023-05-24T04:40:52;100734.91;;;9.65;65.42
19114;BME280;9689;51.052;13.772;2023-05-24T04:45:53;100742.72;;;9.67;65.37
19114;BME280;9689;51.052;13.772;2023-05-24T04:50:56;100740.94;;;9.69;64.97
19114;BME280;9689;51.052;13.772;2023-05-24T04:55:57;100751.25;;;9.79;65.95
19114;BME280;9689;51.052;13.772;2023-05-24T05:08:05;100773.72;;;9.88;64.41
19114;BME280;9689;51.052;13.772;2023-05-24T05:13:06;100772.16;;;9.73;64.88
19114;BME280;9689;51.052;13.772;2023-05-24T05:18:07;100769.47;;;9.82;63.86
19114;BME280;9689;51.052;13.772;2023-05-24T05:23:09;100770.25;;;9.87;64.59
19114;BME280;9689;51.052;13.772;2023-05-24T05:28:09;100776.22;;;10.00;63.30
19114;BME280;9689;51.052;13.772;2023-05-24T05:33:10;100774.66;;;9.81;63.56
19114;BME280;9689;51.052;13.772;2023-05-24T05:38:12;100772.81;;;9.94;63.01
19114;BME280;9689;51.052;13.772;2023-05-24T05:43:13;100780.72;;;9.84;63.60
19114;BME280;9689;51.052;13.772;2023-05-24T05:48:14;100784.91;;;9.98;62.51
19114;BME280;9689;51.052;13.772;2023-05-24T05:53:16;100780.53;;;10.03;63.22
19114;BME280;9689;51.052;13.772;2023-05-24T05:58:17;100780.41;;;10.16;62.12
19114;BME280;9689;51.052;13.772;2023-05-24T06:10:22;100772.53;;;10.23;63.03
19114;BME280;9689;51.052;13.772;2023-05-24T06:15:22;100786.34;;;10.29;62.29
19114;BME280;9689;51.052;13.772;2023-05-24T06:20:23;100794.63;;;10.63;61.22
19114;BME280;9689;51.052;13.772;2023-05-24T06:25:26;100798.22;;;10.55;62.46
19114;BME280;9689;51.052;13.772;2023-05-24T06:30:29;100811.09;;;10.67;61.59
19114;BME280;9689;51.052;13.772;2023-05-24T06:35:32;100802.38;;;10.68;61.19
19114;BME280;9689;51.052;13.772;2023-05-24T06:40:34;100800.53;;;10.79;61.19
19114;BME280;9689;51.052;13.772;2023-05-24T06:45:34;100810.97;;;10.79;61.03
19114;BME280;9689;51.052;13.772;2023-05-24T06:50:36;100822.31;;;10.73;61.49
19114;BME280;9689;51.052;13.772;2023-05-24T06:55:42;100808.78;;;11.10;60.64
19114;BME280;9689;51.052;13.772;2023-05-24T07:00:42;100811.25;;;11.21;59.87
19114;BME280;9689;51.052;13.772;2023-05-24T07:12:44;100833.63;;;11.36;58.55
19114;BME280;9689;51.052;13.772;2023-05-24T07:17:44;100818.22;;;11.19;58.73
19114;BME280;9689;51.052;13.772;2023-05-24T07:22:46;100814.91;;;11.08;58.90
19114;BME280;9689;51.052;13.772;2023-05-24T07:27:48;100827.38;;;10.87;58.44
19114;BME280;9689;51.052;13.772;2023-05-24T07:32:49;100821.28;;;10.87;59.82
19114;BME280;9689;51.052;13.772;2023-05-24T07:37:51;100824.13;;;10.67;60.82
19114;BME280;9689;51.052;13.772;2023-05-24T07:42:53;100833.84;;;10.51;60.27
19114;BME280;9689;51.052;13.772;2023-05-24T07:47:54;100840.91;;;10.44;60.93
19114;BME280;9689;51.052;13.772;2023-05-24T07:52:55;100839.09;;;10.50;61.07
19114;BME280;9689;51.052;13.772;2023-05-24T07:57:57;100849.50;;;10.53;61.83
19114;BME280;9689;51.052;13.772;2023-05-24T08:02:58;100846.63;;;10.74;60.80
19114;BME280;9689;51.052;13.772;2023-05-24T08:15:07;100853.78;;;11.26;56.68
19114;BME280;9689;51.052;13.772;2023-05-24T08:20:10;100857.44;;;11.14;56.49
19114;BME280;9689;51.052;13.772;2023-05-24T08:25:12;100858.03;;;11.33;55.24
19114;BME280;9689;51.052;13.772;2023-05-24T08:30:15;100857.16;;;11.34;55.71
19114;BME280;9689;51.052;13.772;2023-05-24T08:35:16;100850.56;;;11.67;56.24
19114;BME280;9689;51.052;13.772;2023-05-24T08:40:20;100855.16;;;11.51;55.19
19114;BME280;9689;51.052;13.772;2023-05-24T08:45:25;100857.81;;;11.48;54.96
19114;BME280;9689;51.052;13.772;2023-05-24T08:50:26;100865.69;;;11.47;55.60
19114;BME280;9689;51.052;13.772;2023-05-24T08:55:28;100865.47;;;11.60;54.03
19114;BME280;9689;51.052;13.772;2023-05-24T09:00:39;100861.91;;;11.66;52.80
19114;BME280;9689;51.052;13.772;2023-05-24T09:05:40;100860.16;;;12.21;52.96
19114;BME280;9689;51.052;13.772;2023-05-24T09:10:41;100858.59;;;13.00;50.11
19114;BME280;9689;51.052;13.772;2023-05-24T09:15:55;100858.63;;;12.98;49.31
19114;BME280;9689;51.052;13.772;2023-05-24T09:20:56;100860.81;;;13.21;48.95
19114;BME280;9689;51.052;13.772;2023-05-24T09:25:57;100860.44;;;12.96;48.64
19114;BME280;9689;51.052;13.772;2023-05-24T09:31:01;100870.94;;;12.93;48.97
19114;BME280;9689;51.052;13.772;2023-05-24T09:36:07;100864.59;;;13.05;47.95
19114;BME280;9689;51.052;13.772;2023-05-24T09:41:07;100869.59;;;12.74;48.68
19114;BME280;9689;51.052;13.772;2023-05-24T09:46:15;100859.34;;;12.63;47.86
19114;BME280;9689;51.052;13.772;2023-05-24T09:51:16;100848.44;;;12.85;48.11
19114;BME280;9689;51.052;13.772;2023-05-24T09:56:17;100857.66;;;13.02;48.04
19114;BME280;9689;51.052;13.772;2023-05-24T10:01:21;100856.59;;;13.13;48.84
19114;BME280;9689;51.052;13.772;2023-05-24T10:06:24;100871.78;;;13.37;47.62
19114;BME280;9689;51.052;13.772;2023-05-24T10:11:25;100862.41;;;13.27;47.86
19114;BME280;9689;51.052;13.772;2023-05-24T10:16:27;100863.59;;;13.12;47.56
19114;BME280;9689;51.052;13.772;2023-05-24T10:21:30;100873.03;;;13.18;47.87
19114;BME280;9689;51.052;13.772;2023-05-24T10:26:31;100872.44;;;13.47;46.52
19114;BME280;9689;51.052;13.772;2023-05-24T10:31:36;100856.53;;;14.24;44.41
19114;BME280;9689;51.052;13.772;2023-05-24T10:36:39;100849.81;;;13.80;45.28
19114;BME280;9689;51.052;13.772;2023-05-24T10:41:41;100855.00;;;13.83;45.08
19114;BME280;9689;51.052;13.772;2023-05-24T10:47:06;100861.19;;;14.49;43.49
19114;BME280;9689;51.052;13.772;2023-05-24T10:52:08;100868.97;;;13.83;46.31
19114;BME280;9689;51.052;13.772;2023-05-24T10:57:09;100883.81;;;13.83;46.36
19114;BME280;9689;51.052;13.772;2023-05-24T11:02:11;100869.84;;;14.18;44.61
19114;BME280;9689;51.052;13.772;2023-05-24T11:07:14;100867.44;;;14.41;44.11
19114;BME280;9689;51.052;13.772;2023-05-24T11:12:17;100871.66;;;14.14;42.58
19114;BME280;9689;51.052;13.772;2023-05-24T11:17:21;100878.16;;;14.66;43.77
19114;BME280;9689;51.052;13.772;2023-05-24T11:22:24;100884.81;;;14.80;43.79
19114;BME280;9689;51.052;13.772;2023-05-24T11:27:25;100867.53;;;14.38;44.41
19114;BME280;9689;51.052;13.772;2023-05-24T11:32:27;100860.00;;;14.60;43.55
19114;BME280;9689;51.052;13.772;2023-05-24T11:37:28;100856.38;;;14.64;43.63
19114;BME280;9689;51.052;13.772;2023-05-24T11:42:45;100853.16;;;15.43;41.40
19114;BME280;9689;51.052;13.772;2023-05-24T11:47:48;100852.78;;;14.98;41.89
19114;BME280;9689;51.052;13.772;2023-05-24T11:52:49;100849.91;;;14.76;43.45
19114;BME280;9689;51.052;13.772;2023-05-24T11:57:57;100861.63;;;14.64;42.89
19114;BME280;9689;51.052;13.772;2023-05-24T12:03:00;100855.25;;;15.03;42.90
19114;BME280;9689;51.052;13.772;2023-05-24T12:08:07;100863.47;;;14.61;42.77
19114;BME280;9689;51.052;13.772;2023-05-24T12:13:19;100861.41;;;15.02;42.79
19114;BME280;9689;51.052;13.772;2023-05-24T12:18:23;100868.94;;;14.84;42.29
19114;BME280;9689;51.052;13.772;2023-05-24T12:23:25;100864.31;;;14.92;42.95
19114;BME280;9689;51.052;13.772;2023-05-24T12:28:31;100864.88;;;15.04;41.69
19114;BME280;9689;51.052;13.772;2023-05-24T12:33:35;100867.34;;;15.08;40.90
19114;BME280;9689;51.052;13.772;2023-05-24T12:38:36;100870.03;;;15.07;41.29
19114;BME280;9689;51.052;13.772;2023-05-24T12:43:38;100865.31;;;15.46;41.44
19114;BME280;9689;51.052;13.772;2023-05-24T12:48:40;100861.78;;;15.48;41.36
19114;BME280;9689;51.052;13.772;2023-05-24T12:53:41;100854.53;;;15.27;41.20
19114;BME280;9689;51.052;13.772;2023-05-24T12:58:42;100845.81;;;15.26;42.40
19114;BME280;9689;51.052;13.772;2023-05-24T13:03:44;100834.44;;;15.26;41.79
19114;BME280;9689;51.052;13.772;2023-05-24T13:08:45;100841.31;;;15.58;40.20
19114;BME280;9689;51.052;13.772;2023-05-24T13:13:46;100835.13;;;15.87;39.49
19114;BME280;9689;51.052;13.772;2023-05-24T13:18:49;100839.00;;;16.28;39.03
19114;BME280;9689;51.052;13.772;2023-05-24T13:23:50;100833.34;;;16.14;39.87
19114;BME280;9689;51.052;13.772;2023-05-24T13:28:51;100827.81;;;16.47;39.01
19114;BME280;9689;51.052;13.772;2023-05-24T13:34:14;100827.31;;;15.58;40.99
19114;BME280;9689;51.052;13.772;2023-05-24T13:39:16;100829.00;;;16.13;39.50
19114;BME280;9689;51.052;13.772;2023-05-24T13:44:17;100818.13;;;15.97;40.00
19114;BME280;9689;51.052;13.772;2023-05-24T13:49:20;100817.22;;;16.48;37.96
19114;BME280;9689;51.052;13.772;2023-05-24T13:54:20;100818.59;;;16.58;41.32
19114;BME280;9689;51.052;13.772;2023-05-24T13:59:21;100819.13;;;17.38;36.72
19114;BME280;9689;51.052;13.772;2023-05-24T14:04:24;100827.13;;;16.65;38.83
19114;BME280;9689;51.052;13.772;2023-05-24T14:09:25;100825.59;;;15.85;41.16
19114;BME280;9689;51.052;13.772;2023-05-24T14:14:25;100815.09;;;15.57;42.13
19114;BME280;9689;51.052;13.772;2023-05-24T14:19:30;100812.53;;;15.27;42.20
19114;BME280;9689;51.052;13.772;2023-05-24T14:24:32;100811.97;;;15.73;40.91
19114;BME280;9689;51.052;13.772;2023-05-24T14:29:32;100809.78;;;16.11;40.35
19114;BME280;9689;51.052;13.772;2023-05-24T14:34:34;100807.81;;;16.43;40.07
19114;BME280;9689;51.052;13.772;2023-05-24T14:39:35;100812.91;;;16.22;40.13
19114;BME280;9689;51.052;13.772;2023-05-24T14:44:36;100805.47;;;17.05;38.15
19114;BME280;9689;51.052;13.772;2023-05-24T14:49:38;100812.47;;;17.28;37.83
19114;BME280;9689;51.052;13.772;2023-05-24T14:54:39;100806.47;;;16.79;38.79
19114;BME280;9689;51.052;13.772;2023-05-24T14:59:40;100807.81;;;16.66;38.99
19114;BME280;9689;51.052;13.772;2023-05-24T15:04:42;100808.22;;;17.02;39.10
19114;BME280;9689;51.052;13.772;2023-05-24T15:09:42;100816.72;;;16.87;38.66
19114;BME280;9689;51.052;13.772;2023-05-24T15:14:43;100809.69;;;16.62;38.95
19114;BME280;9689;51.052;13.772;2023-05-24T15:19:45;100804.94;;;17.19;38.68
19114;BME280;9689;51.052;13.772;2023-05-24T15:24:46;100805.94;;;16.93;38.66
19114;BME280;9689;51.052;13.772;2023-05-24T15:29:47;100805.13;;;17.14;38.38
19114;BME280;9689;51.052;13.772;2023-05-24T15:34:50;100812.88;;;17.61;37.74
19114;BME280;9689;51.052;13.772;2023-05-24T15:39:50;100807.09;;;17.75;34.45
19114;BME280;9689;51.052;13.772;2023-05-24T15:44:52;100802.00;;;17.48;34.85
19114;BME280;9689;51.052;13.772;2023-05-24T15:49:54;100807.72;;;18.02;35.01
19114;BME280;9689;51.052;13.772;2023-05-24T15:54:55;100810.00;;;17.45;35.51
19114;BME280;9689;51.052;13.772;2023-05-24T15:59:56;100811.25;;;17.59;35.73
19114;BME280;9689;51.052;13.772;2023-05-24T16:04:58;100811.13;;;17.18;36.84
19114;BME280;9689;51.052;13.772;2023-05-24T16:09:59;100799.34;;;17.92;35.06
19114;BME280;9689;51.052;13.772;2023-05-24T16:14:59;100803.56;;;18.56;34.66
19114;BME280;9689;51.052;13.772;2023-05-24T16:20:02;100791.13;;;19.16;33.49
19114;BME280;9689;51.052;13.772;2023-05-24T16:25:03;100783.22;;;20.87;31.48
19114;BME280;9689;51.052;13.772;2023-05-24T16:30:05;100783.66;;;20.96;29.77
19114;BME280;9689;51.052;13.772;2023-05-24T16:35:08;100777.16;;;21.79;28.38
19114;BME280;9689;51.052;13.772;2023-05-24T16:40:10;100795.84;;;22.07;27.91
19114;BME280;9689;51.052;13.772;2023-05-24T16:45:11;100802.28;;;21.10;29.63
19114;BME280;9689;51.052;13.772;2023-05-24T16:50:13;100800.16;;;21.64;29.37
19114;BME280;9689;51.052;13.772;2023-05-24T16:55:14;100800.41;;;20.96;29.13
19114;BME280;9689;51.052;13.772;2023-05-24T17:00:15;100801.84;;;20.20;30.75
19114;BME280;9689;51.052;13.772;2023-05-24T17:05:17;100792.28;;;20.83;31.49
19114;BME280;9689;51.052;13.772;2023-05-24T17:10:18;100797.69;;;21.13;30.13
19114;BME280;9689;51.052;13.772;2023-05-24T17:15:19;100811.00;;;20.80;29.86
19114;BME280;9689;51.052;13.772;2023-05-24T17:20:21;100805.69;;;20.80;29.78
19114;BME280;9689;51.052;13.772;2023-05-24T17:25:22;100812.28;;;20.89;29.35
19114;BME280;9689;51.052;13.772;2023-05-24T17:30:23;100811.16;;;20.44;31.33
19114;BME280;9689;51.052;13.772;2023-05-24T17:35:27;100813.16;;;21.05;29.51
19114;BME280;9689;51.052;13.772;2023-05-24T17:40:28;100814.84;;;19.54;31.89
19114;BME280;9689;51.052;13.772;2023-05-24T17:45:29;100824.69;;;19.69;31.86
19114;BME280;9689;51.052;13.772;2023-05-24T17:50:31;100833.47;;;18.96;32.95
19114;BME280;9689;51.052;13.772;2023-05-24T17:55:32;100836.75;;;19.01;32.90
19114;BME280;9689;51.052;13.772;2023-05-24T18:00:33;100851.69;;;17.36;35.91
19114;BME280;9689;51.052;13.772;2023-05-24T18:05:35;100844.72;;;16.39;38.43
19114;BME280;9689;51.052;13.772;2023-05-24T18:10:36;100847.47;;;15.85;39.94
19114;BME280;9689;51.052;13.772;2023-05-24T18:15:37;100846.25;;;15.69;41.48
19114;BME280;9689;51.052;13.772;2023-05-24T18:20:39;100861.09;;;15.42;42.61
19114;BME280;9689;51.052;13.772;2023-05-24T18:25:40;100860.00;;;15.21;42.45
19114;BME280;9689;51.052;13.772;2023-05-24T18:30:42;100869.97;;;15.08;43.45
19114;BME280;9689;51.052;13.772;2023-05-24T18:35:44;100877.28;;;14.98;43.58
19114;BME280;9689;51.052;13.772;2023-05-24T18:40:45;100881.28;;;14.81;44.40
19114;BME280;9689;51.052;13.772;2023-05-24T18:45:46;100875.75;;;14.59;44.94
19114;BME280;9689;51.052;13.772;2023-05-24T18:50:48;100883.84;;;14.17;46.57
19114;BME280;9689;51.052;13.772;2023-05-24T18:55:50;100889.94;;;14.18;48.15
19114;BME280;9689;51.052;13.772;2023-05-24T19:00:51;100886.13;;;13.95;47.94
19114;BME280;9689;51.052;13.772;2023-05-24T19:05:53;100893.44;;;13.81;50.02
19114;BME280;9689;51.052;13.772;2023-05-24T19:10:54;100895.41;;;13.73;49.92
19114;BME280;9689;51.052;13.772;2023-05-24T19:15:55;100907.19;;;13.53;49.69
19114;BME280;9689;51.052;13.772;2023-05-24T19:20:57;100915.09;;;13.52;51.27
19114;BME280;9689;51.052;13.772;2023-05-24T19:25:58;100921.66;;;13.31;51.96
19114;BME280;9689;51.052;13.772;2023-05-24T19:30:58;100918.25;;;13.26;51.69
19114;BME280;9689;51.052;13.772;2023-05-24T19:36:02;100932.22;;;13.26;54.13
19114;BME280;9689;51.052;13.772;2023-05-24T19:41:03;100944.56;;;13.18;54.35
19114;BME280;9689;51.052;13.772;2023-05-24T19:46:04;100951.00;;;13.02;54.93
19114;BME280;9689;51.052;13.772;2023-05-24T19:51:07;100949.94;;;12.66;55.34
19114;BME280;9689;51.052;13.772;2023-05-24T19:56:07;100951.91;;;12.55;56.39
19114;BME280;9689;51.052;13.772;2023-05-24T20:01:08;100952.13;;;12.41;58.63
19114;BME280;9689;51.052;13.772;2023-05-24T20:06:11;100967.34;;;12.16;59.12
19114;BME280;9689;51.052;13.772;2023-05-24T20:11:11;100972.75;;;12.05;60.77
19114;BME280;9689;51.052;13.772;2023-05-24T20:16:13;100990.50;;;11.79;62.19
19114;BME280;9689;51.052;13.772;2023-05-24T20:21:16;100982.88;;;11.65;62.89
19114;BME280;9689;51.052;13.772;2023-05-24T20:26:17;100986.38;;;11.63;63.98
19114;BME280;9689;51.052;13.772;2023-05-24T20:31:18;100988.28;;;11.51;64.53
19114;BME280;9689;51.052;13.772;2023-05-24T20:36:20;100991.88;;;11.43;64.84
19114;BME280;9689;51.052;13.772;2023-05-24T20:41:21;100990.34;;;11.25;66.02
19114;BME280;9689;51.052;13.772;2023-05-24T20:46:22;100998.31;;;11.13;67.72
19114;BME280;9689;51.052;13.772;2023-05-24T20:51:24;101007.97;;;11.04;67.64
19114;BME280;9689;51.052;13.772;2023-05-24T20:56:25;101012.41;;;10.96;67.94
19114;BME280;9689;51.052;13.772;2023-05-24T21:01:26;101011.63;;;10.88;69.10
19114;BME280;9689;51.052;13.772;2023-05-24T21:06:28;101023.06;;;10.70;69.17
19114;BME280;9689;51.052;13.772;2023-05-24T21:11:32;101033.59;;;10.58;70.82
19114;BME280;9689;51.052;13.772;2023-05-24T21:16:33;101033.63;;;10.55;71.04
19114;BME280;9689;51.052;13.772;2023-05-24T21:21:36;101045.91;;;10.42;71.92
19114;BME280;9689;51.052;13.772;2023-05-24T21:26:37;101043.31;;;10.39;71.80
19114;BME280;9689;51.052;13.772;2023-05-24T21:31:37;101043.28;;;10.41;72.07
19114;BME280;9689;51.052;13.772;2023-05-24T21:36:40;101045.16;;;10.27;72.78
19114;BME280;9689;51.052;13.772;2023-05-24T21:41:40;101045.22;;;10.08;73.72
19114;BME280;9689;51.052;13.772;2023-05-24T21:46:41;101053.03;;;10.07;73.58
19114;BME280;9689;51.052;13.772;2023-05-24T21:51:44;101056.56;;;10.00;74.97
19114;BME280;9689;51.052;13.772;2023-05-24T21:56:45;101050.50;;;9.90;74.80
19114;BME280;9689;51.052;13.772;2023-05-24T22:01:46;101056.66;;;9.83;74.89
19114;BME280;9689;51.052;13.772;2023-05-24T22:06:49;101052.31;;;9.80;75.47
19114;BME280;9689;51.052;13.772;2023-05-24T22:11:50;101068.84;;;9.75;76.26
19114;BME280;9689;51.052;13.772;2023-05-24T22:16:50;101063.66;;;9.67;76.79
19114;BME280;9689;51.052;13.772;2023-05-24T22:21:52;101079.28;;;9.59;77.28
19114;BME280;9689;51.052;13.772;2023-05-24T22:26:54;101079.34;;;9.46;78.04
19114;BME280;9689;51.052;13.772;2023-05-24T22:31:55;101078.47;;;9.47;78.27
19114;BME280;9689;51.052;13.772;2023-05-24T22:36:57;101075.03;;;9.35;78.35
19114;BME280;9689;51.052;13.772;2023-05-24T22:41:58;101075.03;;;9.35;78.54
19114;BME280;9689;51.052;13.772;2023-05-24T22:47:00;101081.13;;;9.30;78.61
19114;BME280;9689;51.052;13.772;2023-05-24T22:52:06;101078.50;;;9.28;78.33
19114;BME280;9689;51.052;13.772;2023-05-24T22:57:07;101086.31;;;9.19;78.87
19114;BME280;9689;51.052;13.772;2023-05-24T23:02:08;101094.16;;;9.16;79.09
19114;BME280;9689;51.052;13.772;2023-05-24T23:07:10;101095.03;;;9.07;79.11
19114;BME280;9689;51.052;13.772;2023-05-24T23:12:11;101089.84;;;9.00;79.53
19114;BME280;9689;51.052;13.772;2023-05-24T23:17:12;101080.31;;;8.97;79.68
19114;BME280;9689;51.052;13.772;2023-05-24T23:22:15;101091.59;;;8.89;79.55
19114;BME280;9689;51.052;13.772;2023-05-24T23:27:17;101093.28;;;8.85;79.84
19114;BME280;9689;51.052;13.772;2023-05-24T23:32:18;101103.69;;;8.85;79.87
19114;BME280;9689;51.052;13.772;2023-05-24T23:37:20;101114.97;;;8.80;79.87
19114;BME280;9689;51.052;13.772;2023-05-24T23:42:21;101116.72;;;8.77;79.96
19114;BME280;9689;51.052;13.772;2023-05-24T23:47:22;101114.09;;;8.68;80.29
19114;BME280;9689;51.052;13.772;2023-05-24T23:52:24;101117.53;;;8.58;80.90
19114;BME280;9689;51.052;13.772;2023-05-24T23:57:25;101116.69;;;8.58;81.30
